This is the latest recevied weather packets stored in our database for station/object KB0OLA. If no packets are shown the sender has not sent any weather packets the latest 10 day(s).
| Time | Temp. | Humidity | Pressure | Rain* | Wind** | Luminosity | Snow |
|---|---|---|---|---|---|---|---|
| 1777886737 | 11.11° C | 41% | 1009.9 hPa | 0 mm | - | - | - |
| 1777878917 | 10° C | 43% | 1009.4 hPa | 0 mm | - | - | - |
| 1777877717 | 10.56° C | 41% | 1009.3 hPa | 0 mm | - | - | - |
| 1777875317 | 11.11° C | 38% | 1009.3 hPa | 0 mm | - | - | - |
| 1777872918 | 12.78° C | 34% | 1009.2 hPa | 0 mm | - | - | - |
| 1777871117 | 13.33° C | 31% | 1009.5 hPa | 0 mm | - | - | - |
| 1777868718 | 12.78° C | 36% | 1009.6 hPa | 0 mm | - | - | - |
| 1777864516 | 16.67° C | 27% | 1009.7 hPa | 0 mm | - | - | - |
| 1777863916 | 17.78° C | 26% | 1009.7 hPa | 0 mm | - | - | - |
| 1777862157 | 20° C | 21% | 1009.7 hPa | 0 mm | - | - | - |
| 1777854318 | 23.33° C | 17% | 1010.5 hPa | 0 mm | - | - | - |
| 1777851318 | 25° C | 17% | 1010.9 hPa | 0 mm | - | - | - |
| 1777849518 | 23.89° C | 16% | 1011.2 hPa | 0 mm | - | - | - |
| 1777843517 | 23.89° C | 15% | 1012.7 hPa | 0 mm | - | - | - |
| 1777842917 | 23.89° C | 15% | 1012.9 hPa | 0 mm | - | - | - |
| 1777842358 | 24.44° C | 15% | 1013 hPa | 0 mm | - | - | - |
| 1777839917 | 24.44° C | 18% | 1013.6 hPa | 0 mm | - | - | - |
| 1777838717 | 23.89° C | 19% | 1013.9 hPa | 0 mm | - | - | - |
| 1777833317 | 22.22° C | 22% | 1015.2 hPa | 0 mm | - | - | - |
| 1777829717 | 20.56° C | 23% | 1015.8 hPa | 0 mm | - | - | - |
| 1777827317 | 18.89° C | 24% | 1016.2 hPa | 0 mm | - | - | - |
| 1777823116 | 15.56° C | 30% | 1016.6 hPa | 0 mm | - | - | - |
| 1777820717 | 14.44° C | 32% | 1016.5 hPa | 0 mm | - | - | - |
| 1777818318 | 12.22° C | 38% | 1016.1 hPa | 0 mm | - | - | - |
| 1777809918 | 8.33° C | 41% | 1015.9 hPa | 0 mm | - | - | - |
* Rain latest hour (hover to see other rain measurements)
** Current wind speed in m/s (hover to see current wind gust speed)